Time;durP1;ratioP1;P1;durP2;ratioP2;P2;SDS_P1;SDS_P2;PMS_P1;PMS_P2;Temp;Humidity;BMP_temperature;BMP_pressure;BME280_temperature;BME280_humidity;BME280_pressure;Samples;Min_cycle;Max_cycle;Signal;HPM_P1;HPM_P2
2022/09/04 00:02:29;;;;;;;6.47;0.88;;;;;;;;;;5119366;27;20083;-44
2022/09/04 00:05:03;;;;;;;6.85;1.58;;;;;;;;;;5131621;27;20060;-43
2022/09/04 00:07:47;;;;;;;3.55;1.52;;;;;;;;;;5133590;27;20038;-44
2022/09/04 00:10:21;;;;;;;10.75;1.63;;;;;;;;;;5131506;27;20098;-41
2022/09/04 00:12:46;;;;;;;6.10;1.50;;;;;;;;;;5132224;27;20023;-40
2022/09/04 00:15:15;;;;;;;3.40;1.73;;;;;;;;;;5132007;27;20026;-42
2022/09/04 00:17:53;;;;;;;3.92;2.40;;;;;;;;;;5131215;27;20120;-41
2022/09/04 00:20:31;;;;;;;1.38;0.60;;;;;;;;;;5135669;27;20385;-41
2022/09/04 00:22:56;;;;;;;6.32;2.08;;;;;;;;;;5136269;27;20054;-41
2022/09/04 00:25:32;;;;;;;3.80;2.20;;;;;;;;;;5128953;27;20041;-42
2022/09/04 00:28:01;;;;;;;4.03;1.23;;;;;;;;;;5131001;27;20026;-47
2022/09/04 00:30:27;;;;;;;6.40;2.17;;;;;;;;;;5130109;27;20027;-43
2022/09/04 00:33:07;;;;;;;3.65;1.70;;;;;;;;;;5132978;27;20019;-43
2022/09/04 00:35:35;;;;;;;10.18;1.60;;;;;;;;;;5134611;27;20389;-40
2022/09/04 00:38:00;;;;;;;7.97;2.38;;;;;;;;;;5132107;27;20026;-42
2022/09/04 00:40:26;;;;;;;3.90;2.58;;;;;;;;;;5133659;27;20535;-43
2022/09/04 00:43:09;;;;;;;8.25;2.83;;;;;;;;;;5130438;27;20015;-40
2022/09/04 00:45:40;;;;;;;6.15;1.92;;;;;;;;;;5133051;27;20049;-40
2022/09/04 00:48:06;;;;;;;6.00;2.70;;;;;;;;;;5128402;27;20052;-45
2022/09/04 00:50:39;;;;;;;11.30;2.97;;;;;;;;;;5133084;27;20014;-41
2022/09/04 00:53:23;;;;;;;3.92;2.03;;;;;;;;;;5133811;27;20014;-43
2022/09/04 00:55:52;;;;;;;8.45;3.45;;;;;;;;;;5130646;27;20126;-41
2022/09/04 00:58:24;;;;;;;7.32;2.45;;;;;;;;;;5132267;27;20092;-41
2022/09/04 01:00:51;;;;;;;24.45;4.07;;;;;;;;;;5130798;27;20435;-44
2022/09/04 01:03:17;;;;;;;4.65;1.98;;;;;;;;;;5134066;27;20026;-41
2022/09/04 01:06:01;;;;;;;1.60;0.98;;;;;;;;;;5129753;27;20026;-46
2022/09/04 01:08:30;;;;;;;9.27;2.47;;;;;;;;;;5134566;27;20015;-41
2022/09/04 01:11:13;;;;;;;13.88;1.42;;;;;;;;;;5137701;27;20018;-41
2022/09/04 01:13:41;;;;;;;3.05;1.98;;;;;;;;;;5133025;27;20027;-41
2022/09/04 01:16:12;;;;;;;26.00;3.22;;;;;;;;;;5134178;27;20087;-45
2022/09/04 01:19:01;;;;;;;2.72;1.85;;;;;;;;;;5130994;27;20035;-43
2022/09/04 01:21:29;;;;;;;7.35;3.10;;;;;;;;;;5133422;27;20026;-41
2022/09/04 01:24:06;;;;;;;5.85;2.35;;;;;;;;;;5134342;27;20042;-41
2022/09/04 01:26:42;;;;;;;16.48;2.95;;;;;;;;;;5134422;27;20019;-41
2022/09/04 01:29:15;;;;;;;7.10;2.25;;;;;;;;;;5125524;27;20015;-42
2022/09/04 01:31:47;;;;;;;7.15;1.25;;;;;;;;;;5127587;27;20026;-42
2022/09/04 01:34:21;;;;;;;16.38;3.60;;;;;;;;;;5130289;27;20133;-42
2022/09/04 01:36:52;;;;;;;5.05;1.95;;;;;;;;;;5127624;27;20078;-41
2022/09/04 01:39:19;;;;;;;6.45;2.75;;;;;;;;;;5128975;27;20691;-42
2022/09/04 01:41:45;;;;;;;4.43;1.55;;;;;;;;;;5135228;27;20033;-40
2022/09/04 01:44:10;;;;;;;3.65;1.90;;;;;;;;;;5134023;27;20496;-42
2022/09/04 01:46:54;;;;;;;8.68;2.00;;;;;;;;;;5137425;27;20515;-41
2022/09/04 01:49:22;;;;;;;7.35;1.98;;;;;;;;;;5135924;27;20022;-41
2022/09/04 01:51:56;;;;;;;13.15;2.78;;;;;;;;;;5135959;27;20027;-41
2022/09/04 01:54:31;;;;;;;4.97;3.08;;;;;;;;;;5135373;27;20049;-44
2022/09/04 01:57:07;;;;;;;7.93;3.55;;;;;;;;;;5136056;27;20058;-43
2022/09/04 01:59:52;;;;;;;9.70;2.33;;;;;;;;;;5134448;27;20110;-41
2022/09/04 02:02:34;;;;;;;6.68;2.00;;;;;;;;;;5082525;27;20035;-40
2022/09/04 02:05:03;;;;;;;8.63;2.13;;;;;;;;;;5132865;27;20063;-42
2022/09/04 02:07:31;;;;;;;8.30;2.60;;;;;;;;;;5137125;27;20042;-41
2022/09/04 02:10:11;;;;;;;6.85;3.08;;;;;;;;;;5136933;27;20018;-47
2022/09/04 02:12:52;;;;;;;5.35;2.55;;;;;;;;;;5137743;27;20054;-38
2022/09/04 02:15:35;;;;;;;9.02;2.85;;;;;;;;;;5135831;27;20030;-40
2022/09/04 02:18:15;;;;;;;7.00;2.55;;;;;;;;;;5129973;27;20023;-38
2022/09/04 02:20:46;;;;;;;6.68;1.88;;;;;;;;;;5133468;27;20076;-40
2022/09/04 02:23:20;;;;;;;18.63;2.50;;;;;;;;;;5133676;27;20039;-40
2022/09/04 02:25:46;;;;;;;11.88;3.90;;;;;;;;;;5135452;27;20019;-38
2022/09/04 02:28:14;;;;;;;16.90;4.82;;;;;;;;;;5135656;27;20496;-39
2022/09/04 02:30:58;;;;;;;11.07;2.72;;;;;;;;;;5137653;27;20023;-38
2022/09/04 02:33:23;;;;;;;9.95;3.03;;;;;;;;;;5136417;27;20031;-39
2022/09/04 02:35:59;;;;;;;7.45;2.33;;;;;;;;;;5138105;27;20075;-39
2022/09/04 02:38:43;;;;;;;11.30;1.92;;;;;;;;;;5134016;27;20023;-38
2022/09/04 02:41:29;;;;;;;11.35;2.38;;;;;;;;;;5131951;27;20018;-40
2022/09/04 02:44:13;;;;;;;8.00;1.90;;;;;;;;;;5134270;27;20023;-39
2022/09/04 02:46:57;;;;;;;6.63;3.95;;;;;;;;;;5127634;27;20110;-38
2022/09/04 02:49:37;;;;;;;7.70;2.72;;;;;;;;;;5133395;27;20403;-40
2022/09/04 02:52:12;;;;;;;6.43;1.60;;;;;;;;;;5132478;27;20167;-39
2022/09/04 02:54:56;;;;;;;16.67;6.80;;;;;;;;;;5137281;27;20054;-38
2022/09/04 02:57:49;;;;;;;5.57;1.83;;;;;;;;;;5133795;27;20071;-41
2022/09/04 03:00:18;;;;;;;7.63;3.53;;;;;;;;;;5126571;27;20118;-38
2022/09/04 03:02:49;;;;;;;7.25;2.58;;;;;;;;;;5136616;27;20094;-39
2022/09/04 03:05:18;;;;;;;7.85;2.38;;;;;;;;;;5134480;27;20454;-39
2022/09/04 03:07:58;;;;;;;13.65;2.55;;;;;;;;;;5137335;27;20090;-39
2022/09/04 03:10:30;;;;;;;7.57;2.25;;;;;;;;;;5135789;27;20015;-38
2022/09/04 03:12:55;;;;;;;5.35;1.70;;;;;;;;;;5137896;27;20019;-41
2022/09/04 03:15:37;;;;;;;6.05;1.58;;;;;;;;;;5136401;27;20031;-39
2022/09/04 03:18:25;;;;;;;5.07;2.05;;;;;;;;;;5132847;27;20023;-38
2022/09/04 03:21:00;;;;;;;8.15;3.35;;;;;;;;;;5119384;27;20026;-43
2022/09/04 03:23:44;;;;;;;23.67;3.10;;;;;;;;;;5129796;27;20502;-40
2022/09/04 03:26:39;;;;;;;5.80;1.60;;;;;;;;;;5134641;27;20072;-40
2022/09/04 03:29:13;;;;;;;11.40;3.60;;;;;;;;;;5114490;27;20024;-39
2022/09/04 03:31:44;;;;;;;6.47;1.67;;;;;;;;;;5135804;27;20104;-38
2022/09/04 03:34:10;;;;;;;14.85;2.78;;;;;;;;;;5131270;27;20023;-38
2022/09/04 03:36:57;;;;;;;15.20;2.80;;;;;;;;;;5131332;27;20029;-38
2022/09/04 03:39:41;;;;;;;7.20;1.95;;;;;;;;;;5132241;27;20067;-39
2022/09/04 03:42:24;;;;;;;10.55;2.60;;;;;;;;;;5131979;27;20126;-38
2022/09/04 03:44:57;;;;;;;12.15;3.47;;;;;;;;;;5135691;27;20066;-39
2022/09/04 03:47:29;;;;;;;7.25;1.90;;;;;;;;;;5135375;27;20011;-38
2022/09/04 03:50:18;;;;;;;3.80;2.60;;;;;;;;;;5132938;27;20019;-39
2022/09/04 03:52:44;;;;;;;13.18;1.35;;;;;;;;;;5090173;27;20031;-38
2022/09/04 03:55:15;;;;;;;7.72;2.35;;;;;;;;;;5130697;27;20156;-39
2022/09/04 03:57:56;;;;;;;4.22;2.30;;;;;;;;;;5133537;27;20014;-39
2022/09/04 04:00:21;;;;;;;8.00;1.67;;;;;;;;;;5132121;27;20023;-40
2022/09/04 04:03:05;;;;;;;3.40;2.00;;;;;;;;;;5133492;27;20110;-39
2022/09/04 04:05:39;;;;;;;5.63;2.28;;;;;;;;;;5135316;27;20026;-38
2022/09/04 04:08:05;;;;;;;4.40;1.60;;;;;;;;;;5134876;27;20019;-39
2022/09/04 04:10:45;;;;;;;7.65;3.45;;;;;;;;;;5139557;27;20054;-39
2022/09/04 04:13:18;;;;;;;18.13;4.45;;;;;;;;;;5134721;27;20049;-39
2022/09/04 04:16:02;;;;;;;7.47;2.22;;;;;;;;;;5132986;27;20022;-38
2022/09/04 04:18:47;;;;;;;3.95;1.52;;;;;;;;;;5135060;27;20075;-41
2022/09/04 04:21:22;;;;;;;10.18;2.67;;;;;;;;;;5080068;27;20060;-39
2022/09/04 04:24:03;;;;;;;5.95;2.20;;;;;;;;;;5131255;27;20031;-40
2022/09/04 04:26:39;;;;;;;5.53;2.38;;;;;;;;;;5131231;27;20015;-39
2022/09/04 04:29:07;;;;;;;7.35;2.15;;;;;;;;;;5131146;27;20027;-39
2022/09/04 04:31:38;;;;;;;8.73;2.05;;;;;;;;;;5135938;27;20020;-39
2022/09/04 04:34:14;;;;;;;5.20;3.08;;;;;;;;;;5132948;27;20105;-38
2022/09/04 04:36:58;;;;;;;11.38;3.83;;;;;;;;;;5128915;27;20027;-40
2022/09/04 04:39:38;;;;;;;2.50;1.00;;;;;;;;;;5131795;27;20488;-38
2022/09/04 04:42:14;;;;;;;9.18;4.25;;;;;;;;;;5129959;27;20042;-38
2022/09/04 04:47:36;;;;;;;7.22;4.05;;;;;;;;;;5096042;27;20114;-38
2022/09/04 04:50:05;;;;;;;2.10;1.42;;;;;;;;;;5133734;27;20522;-39
2022/09/04 04:52:39;;;;;;;8.77;2.50;;;;;;;;;;5127865;27;20014;-38
2022/09/04 04:55:05;;;;;;;8.30;2.30;;;;;;;;;;5132184;27;20054;-40
2022/09/04 04:57:34;;;;;;;4.22;1.65;;;;;;;;;;5133688;27;20091;-41
2022/09/04 05:00:14;;;;;;;18.00;2.22;;;;;;;;;;5133165;27;20084;-41
2022/09/04 05:02:50;;;;;;;7.78;1.90;;;;;;;;;;5134757;27;20535;-42
2022/09/04 05:05:16;;;;;;;2.55;1.58;;;;;;;;;;5134404;27;20523;-41
2022/09/04 05:08:11;;;;;;;7.88;1.25;;;;;;;;;;5129677;27;20023;-41
2022/09/04 05:10:40;;;;;;;5.70;1.55;;;;;;;;;;5045378;27;20071;-42
2022/09/04 05:13:24;;;;;;;17.80;4.20;;;;;;;;;;5134800;27;20119;-41
2022/09/04 05:16:01;;;;;;;12.80;2.60;;;;;;;;;;5136383;27;20015;-41
2022/09/04 05:18:33;;;;;;;31.17;7.78;;;;;;;;;;5139094;27;20023;-44
2022/09/04 05:21:03;;;;;;;8.25;4.60;;;;;;;;;;5128104;27;20406;-41
2022/09/04 05:23:31;;;;;;;10.85;3.03;;;;;;;;;;5140997;27;20085;-41
2022/09/04 05:25:59;;;;;;;10.50;2.00;;;;;;;;;;5134162;27;20019;-41
2022/09/04 05:28:31;;;;;;;6.68;1.90;;;;;;;;;;5135775;27;20019;-44
2022/09/04 05:31:00;;;;;;;5.30;2.58;;;;;;;;;;5136314;27;20068;-40
2022/09/04 05:33:25;;;;;;;14.43;3.53;;;;;;;;;;5131364;27;20492;-41
2022/09/04 05:35:53;;;;;;;6.68;2.90;;;;;;;;;;5136411;27;20026;-40
2022/09/04 05:38:29;;;;;;;14.35;2.95;;;;;;;;;;5136511;27;20014;-41
2022/09/04 05:41:01;;;;;;;8.88;3.55;;;;;;;;;;5132895;27;20029;-41
2022/09/04 05:43:26;;;;;;;25.55;14.25;;;;;;;;;;5136567;27;20504;-41
2022/09/04 05:45:57;;;;;;;22.42;13.40;;;;;;;;;;5137795;27;20011;-40
2022/09/04 05:48:38;;;;;;;18.95;12.85;;;;;;;;;;5137905;27;20047;-41
2022/09/04 05:51:33;;;;;;;19.05;13.88;;;;;;;;;;5135789;27;20483;-43
2022/09/04 05:54:01;;;;;;;11.27;5.22;;;;;;;;;;5059094;27;20060;-41
2022/09/04 05:56:49;;;;;;;13.43;5.82;;;;;;;;;;5097327;28;20035;-41
2022/09/04 05:59:24;;;;;;;10.15;4.90;;;;;;;;;;5090785;28;20131;-41
2022/09/04 06:02:01;;;;;;;12.43;5.47;;;;;;;;;;5097824;28;20039;-41
2022/09/04 06:04:36;;;;;;;13.60;4.32;;;;;;;;;;5093878;28;20024;-41
2022/09/04 06:07:08;;;;;;;18.45;4.55;;;;;;;;;;5098579;28;20035;-40
2022/09/04 06:09:39;;;;;;;13.93;3.03;;;;;;;;;;5097076;28;20048;-41
2022/09/04 06:12:05;;;;;;;6.13;3.97;;;;;;;;;;5091765;28;20685;-40
2022/09/04 06:14:33;;;;;;;16.27;5.05;;;;;;;;;;5093786;28;20024;-40
2022/09/04 06:17:12;;;;;;;11.65;4.18;;;;;;;;;;5096385;28;20047;-39
2022/09/04 06:19:52;;;;;;;9.45;3.10;;;;;;;;;;5093119;28;20028;-41
2022/09/04 06:22:26;;;;;;;7.97;3.75;;;;;;;;;;5096340;28;20027;-41
2022/09/04 06:24:58;;;;;;;5.85;2.22;;;;;;;;;;5097782;28;20102;-42
2022/09/04 06:27:32;;;;;;;17.42;9.23;;;;;;;;;;5094158;28;20023;-41
2022/09/04 06:30:16;;;;;;;33.25;25.02;;;;;;;;;;5098330;28;20653;-41
2022/09/04 06:32:51;;;;;;;24.58;17.20;;;;;;;;;;5091885;28;20019;-40
2022/09/04 06:35:22;;;;;;;51.85;28.90;;;;;;;;;;5092028;28;20030;-43
2022/09/04 06:38:06;;;;;;;21.70;17.83;;;;;;;;;;5090472;28;20035;-41
2022/09/04 06:40:55;;;;;;;19.30;14.32;;;;;;;;;;5092117;28;20023;-39
2022/09/04 06:43:20;;;;;;;25.88;21.48;;;;;;;;;;5078753;28;20039;-39
2022/09/04 06:46:05;;;;;;;34.28;19.67;;;;;;;;;;5090748;28;20016;-38
2022/09/04 06:48:34;;;;;;;27.58;20.65;;;;;;;;;;5092345;28;20028;-38
2022/09/04 06:51:17;;;;;;;29.77;19.90;;;;;;;;;;5094374;28;20031;-42
2022/09/04 06:54:21;;;;;;;38.00;23.90;;;;;;;;;;5096748;28;20034;-38
2022/09/04 06:56:58;;;;;;;59.20;40.38;;;;;;;;;;5005560;28;20052;-40
2022/09/04 06:59:35;;;;;;;53.45;38.55;;;;;;;;;;5005362;28;20077;-38
2022/09/04 07:02:06;;;;;;;42.03;34.08;;;;;;;;;;5056971;28;20060;-40
2022/09/04 07:04:42;;;;;;;46.17;35.30;;;;;;;;;;5094802;28;20063;-43
2022/09/04 07:07:17;;;;;;;47.85;37.33;;;;;;;;;;5091021;28;20822;-41
2022/09/04 07:09:47;;;;;;;49.33;31.45;;;;;;;;;;5089994;28;20044;-42
2022/09/04 07:12:32;;;;;;;28.13;19.53;;;;;;;;;;5093878;28;20040;-43
2022/09/04 07:15:13;;;;;;;22.13;13.00;;;;;;;;;;5091148;28;20244;-39
2022/09/04 07:17:52;;;;;;;18.27;12.18;;;;;;;;;;5094266;28;20076;-39
2022/09/04 07:20:24;;;;;;;20.05;13.27;;;;;;;;;;5087469;28;20484;-39
2022/09/04 07:23:08;;;;;;;15.68;12.55;;;;;;;;;;5091603;28;20539;-41
2022/09/04 07:25:48;;;;;;;39.67;25.25;;;;;;;;;;5093225;28;20119;-41
2022/09/04 07:28:13;;;;;;;25.95;23.40;;;;;;;;;;5093589;28;20026;-41
2022/09/04 07:30:46;;;;;;;34.58;24.83;;;;;;;;;;5090530;28;20012;-38
2022/09/04 07:33:19;;;;;;;35.13;27.35;;;;;;;;;;5093945;28;20024;-39
2022/09/04 07:36:11;;;;;;;29.33;22.52;;;;;;;;;;5090264;28;20110;-45
2022/09/04 07:38:41;;;;;;;43.97;28.67;;;;;;;;;;5086495;28;20028;-42
2022/09/04 07:41:09;;;;;;;41.35;26.83;;;;;;;;;;5091382;28;20163;-42
2022/09/04 07:43:53;;;;;;;52.40;40.33;;;;;;;;;;5095175;28;20028;-40
2022/09/04 07:46:21;;;;;;;51.25;21.52;;;;;;;;;;5089424;28;20016;-42
2022/09/04 07:48:53;;;;;;;21.80;16.00;;;;;;;;;;5093995;28;20012;-41
2022/09/04 07:51:25;;;;;;;15.27;11.35;;;;;;;;;;5092204;28;20036;-40
2022/09/04 07:54:19;;;;;;;9.43;3.83;;;;;;;;;;5095233;28;20027;-40
2022/09/04 07:57:03;;;;;;;18.20;10.60;;;;;;;;;;5087167;28;20040;-39
2022/09/04 07:59:38;;;;;;;19.85;11.23;;;;;;;;;;5088402;28;20110;-39
2022/09/04 08:02:21;;;;;;;18.20;12.15;;;;;;;;;;5089372;28;20609;-40
2022/09/04 08:04:47;;;;;;;7.63;4.03;;;;;;;;;;5091269;28;20027;-40
2022/09/04 08:07:28;;;;;;;19.85;15.05;;;;;;;;;;5090975;28;20023;-40
2022/09/04 08:10:05;;;;;;;30.65;16.67;;;;;;;;;;5086629;28;20094;-40
2022/09/04 08:12:49;;;;;;;25.27;15.13;;;;;;;;;;5087483;28;20039;-41
2022/09/04 08:15:20;;;;;;;20.13;13.93;;;;;;;;;;5090766;28;20534;-42
2022/09/04 08:18:04;;;;;;;20.10;13.70;;;;;;;;;;5091450;28;20027;-40
2022/09/04 08:20:44;;;;;;;18.08;11.25;;;;;;;;;;5089784;28;20047;-43
2022/09/04 08:23:26;;;;;;;17.20;6.93;;;;;;;;;;5088557;28;20048;-39
2022/09/04 08:26:00;;;;;;;9.52;7.43;;;;;;;;;;5093218;28;20016;-39
2022/09/04 08:28:40;;;;;;;9.63;5.38;;;;;;;;;;5087035;28;20095;-40
2022/09/04 08:31:16;;;;;;;24.63;9.20;;;;;;;;;;5087089;28;20056;-40
2022/09/04 08:33:43;;;;;;;15.23;9.57;;;;;;;;;;5090081;28;20503;-39
2022/09/04 08:36:35;;;;;;;12.35;8.27;;;;;;;;;;5089929;28;20036;-39
2022/09/04 08:39:12;;;;;;;12.82;6.82;;;;;;;;;;5086383;28;20039;-39
2022/09/04 08:41:53;;;;;;;10.60;5.25;;;;;;;;;;5089973;28;20031;-40
2022/09/04 08:44:18;;;;;;;;;;;;;;;;;;5090667;28;20020;-39
2022/09/04 08:46:53;;;;;;;15.18;5.75;;;;;;;;;;5093443;28;19912;-40
2022/09/04 08:49:30;;;;;;;21.48;8.13;;;;;;;;;;5090115;28;20048;-39
2022/09/04 08:52:17;;;;;;;8.27;5.25;;;;;;;;;;5091329;28;20048;-41
2022/09/04 08:54:56;;;;;;;7.45;3.95;;;;;;;;;;5061837;27;20043;-42
2022/09/04 08:57:24;;;;;;;7.30;3.80;;;;;;;;;;5130122;27;20023;-39
2022/09/04 09:00:08;;;;;;;14.40;2.90;;;;;;;;;;5126550;27;20063;-40
2022/09/04 09:02:34;;;;;;;11.50;4.22;;;;;;;;;;5131081;27;20507;-39
2022/09/04 09:05:08;;;;;;;6.35;3.30;;;;;;;;;;5127732;27;20489;-42
2022/09/04 09:07:34;;;;;;;11.68;3.97;;;;;;;;;;5130097;27;20016;-39
2022/09/04 09:10:19;;;;;;;13.75;7.10;;;;;;;;;;5131442;27;20109;-40
2022/09/04 09:12:44;;;;;;;9.20;3.53;;;;;;;;;;5128293;27;20687;-41
2022/09/04 09:15:29;;;;;;;5.07;2.97;;;;;;;;;;5122355;27;20141;-40
2022/09/04 09:17:55;;;;;;;9.70;3.13;;;;;;;;;;5130832;27;20079;-43
2022/09/04 09:20:26;;;;;;;5.88;3.67;;;;;;;;;;5132954;27;20016;-40
2022/09/04 09:23:10;;;;;;;4.85;2.80;;;;;;;;;;5127132;27;20038;-44
2022/09/04 09:25:44;;;;;;;15.32;3.10;;;;;;;;;;5130309;27;20118;-40
2022/09/04 09:28:33;;;;;;;31.77;5.28;;;;;;;;;;5128590;27;20027;-40
2022/09/04 09:31:11;;;;;;;3.58;2.50;;;;;;;;;;5129305;27;20023;-39
2022/09/04 09:33:39;;;;;;;23.55;4.22;;;;;;;;;;5129253;27;20014;-40
2022/09/04 09:36:11;;;;;;;9.00;4.57;;;;;;;;;;5126636;27;20060;-39
2022/09/04 09:38:42;;;;;;;20.00;6.53;;;;;;;;;;5131922;27;20011;-38
2022/09/04 09:41:11;;;;;;;9.70;4.00;;;;;;;;;;5135992;27;20451;-44
2022/09/04 09:43:49;;;;;;;8.82;3.22;;;;;;;;;;5130364;27;20023;-40
2022/09/04 09:46:21;;;;;;;13.95;4.20;;;;;;;;;;5133375;27;20019;-38
2022/09/04 09:48:49;;;;;;;4.20;2.25;;;;;;;;;;5132774;27;20029;-38
2022/09/04 09:51:26;;;;;;;10.88;4.28;;;;;;;;;;5129634;27;20015;-40
2022/09/04 09:54:09;;;;;;;8.40;2.88;;;;;;;;;;5128647;27;20016;-40
2022/09/04 09:56:57;;;;;;;14.40;2.38;;;;;;;;;;5130594;27;20043;-39
2022/09/04 09:59:25;;;;;;;11.73;2.88;;;;;;;;;;5118451;27;20046;-39
2022/09/04 10:02:11;;;;;;;11.25;3.38;;;;;;;;;;5128798;27;20144;-39
2022/09/04 10:04:57;;;;;;;8.57;1.58;;;;;;;;;;5133037;27;20643;-41
2022/09/04 10:07:25;;;;;;;12.23;4.25;;;;;;;;;;5078784;27;20014;-40
2022/09/04 10:09:55;;;;;;;6.20;2.60;;;;;;;;;;5130063;27;20091;-38
2022/09/04 10:12:20;;;;;;;3.58;2.17;;;;;;;;;;5133749;27;20025;-41
2022/09/04 10:15:02;;;;;;;9.32;3.25;;;;;;;;;;5135759;27;20023;-43
2022/09/04 10:17:36;;;;;;;20.48;3.40;;;;;;;;;;5134051;27;20103;-43
2022/09/04 10:20:20;;;;;;;11.60;3.80;;;;;;;;;;5135458;27;20388;-42
2022/09/04 10:22:54;;;;;;;20.77;3.30;;;;;;;;;;5133032;27;20482;-51
2022/09/04 10:25:30;;;;;;;14.43;3.83;;;;;;;;;;5131198;27;20027;-42
2022/09/04 10:28:14;;;;;;;9.40;2.30;;;;;;;;;;5136523;27;20075;-45
2022/09/04 10:30:58;;;;;;;9.00;2.85;;;;;;;;;;5132213;27;20016;-42
2022/09/04 10:33:42;;;;;;;10.52;2.47;;;;;;;;;;5129451;27;20014;-44
2022/09/04 10:36:13;;;;;;;18.05;3.33;;;;;;;;;;5132163;27;20019;-44
2022/09/04 10:41:49;;;;;;;7.07;1.88;;;;;;;;;;5079303;27;20027;-43
2022/09/04 10:44:37;;;;;;;12.63;3.60;;;;;;;;;;5083147;27;20087;-44
2022/09/04 10:47:14;;;;;;;20.98;3.53;;;;;;;;;;5133417;27;20023;-42
2022/09/04 10:49:58;;;;;;;9.73;2.05;;;;;;;;;;5135295;27;20018;-42
2022/09/04 10:52:50;;;;;;;20.85;5.60;;;;;;;;;;5131310;27;20023;-47
2022/09/04 10:55:22;;;;;;;16.52;5.65;;;;;;;;;;5099314;27;20046;-42
2022/09/04 10:58:02;;;;;;;8.73;2.80;;;;;;;;;;5130582;27;20695;-45
2022/09/04 11:00:48;;;;;;;7.90;1.80;;;;;;;;;;5136029;27;20023;-49
2022/09/04 11:03:17;;;;;;;14.02;4.38;;;;;;;;;;5132250;27;20103;-42
2022/09/04 11:06:01;;;;;;;20.10;3.13;;;;;;;;;;5131871;27;20035;-43
2022/09/04 11:08:38;;;;;;;16.70;2.70;;;;;;;;;;5132973;27;20102;-49
2022/09/04 11:11:24;;;;;;;19.40;5.85;;;;;;;;;;5132330;27;20024;-43
2022/09/04 11:14:04;;;;;;;16.20;4.15;;;;;;;;;;5116912;27;20027;-44
2022/09/04 11:16:42;;;;;;;8.25;2.95;;;;;;;;;;5132343;27;20027;-44
2022/09/04 11:19:09;;;;;;;5.40;2.47;;;;;;;;;;5128112;27;20951;-44
2022/09/04 11:22:00;;;;;;;3.63;1.60;;;;;;;;;;5117636;27;20027;-42
2022/09/04 11:24:36;;;;;;;5.72;2.08;;;;;;;;;;5099628;27;20303;-44
2022/09/04 11:27:08;;;;;;;6.95;2.38;;;;;;;;;;5130334;27;20015;-45
2022/09/04 11:29:48;;;;;;;9.23;2.58;;;;;;;;;;5133908;27;20035;-46
2022/09/04 11:32:32;;;;;;;6.38;2.55;;;;;;;;;;5130736;27;20598;-44
2022/09/04 11:35:18;;;;;;;8.95;1.70;;;;;;;;;;5125737;27;20469;-46
2022/09/04 11:38:02;;;;;;;11.82;2.30;;;;;;;;;;5130652;27;20506;-48
2022/09/04 11:40:42;;;;;;;8.50;1.98;;;;;;;;;;5125574;27;20027;-44
2022/09/04 11:43:22;;;;;;;9.43;2.20;;;;;;;;;;5132354;27;20110;-47
2022/09/04 11:45:48;;;;;;;9.27;3.42;;;;;;;;;;5134774;27;20493;-43
2022/09/04 11:48:28;;;;;;;6.78;2.05;;;;;;;;;;5136888;27;20061;-46
2022/09/04 11:51:15;;;;;;;13.35;4.32;;;;;;;;;;5132114;27;20015;-49
2022/09/04 11:53:52;;;;;;;6.63;2.08;;;;;;;;;;5132417;27;20094;-48
2022/09/04 11:56:24;;;;;;;5.63;1.40;;;;;;;;;;5133453;27;20058;-46
2022/09/04 11:59:08;;;;;;;19.75;4.38;;;;;;;;;;5130404;27;20023;-43
2022/09/04 12:01:42;;;;;;;5.72;2.22;;;;;;;;;;5131188;27;20034;-45
2022/09/04 12:04:21;;;;;;;24.40;4.80;;;;;;;;;;5128746;27;20023;-49
2022/09/04 12:06:49;;;;;;;12.60;2.95;;;;;;;;;;5128552;27;20015;-45
2022/09/04 12:09:33;;;;;;;2.97;1.45;;;;;;;;;;5131510;27;20389;-46
2022/09/04 12:12:16;;;;;;;8.40;2.97;;;;;;;;;;5133806;27;20454;-46
2022/09/04 12:14:47;;;;;;;6.28;2.08;;;;;;;;;;5129014;27;20035;-48
2022/09/04 12:17:39;;;;;;;9.63;2.63;;;;;;;;;;5128956;27;20060;-46
2022/09/04 12:20:07;;;;;;;4.63;1.95;;;;;;;;;;5129509;27;20037;-42
2022/09/04 12:22:49;;;;;;;9.35;3.53;;;;;;;;;;5129064;27;20041;-45
2022/09/04 12:25:32;;;;;;;7.60;1.75;;;;;;;;;;5128026;27;20045;-46
2022/09/04 12:27:58;;;;;;;5.35;1.67;;;;;;;;;;5126703;27;20102;-44
2022/09/04 12:30:36;;;;;;;2.95;1.27;;;;;;;;;;5130493;27;20160;-45
2022/09/04 12:33:20;;;;;;;7.68;1.80;;;;;;;;;;5127425;27;20018;-45
2022/09/04 12:35:49;;;;;;;8.80;3.10;;;;;;;;;;5126011;27;20050;-47
2022/09/04 12:38:14;;;;;;;8.93;2.67;;;;;;;;;;5128235;27;20118;-44
2022/09/04 12:40:58;;;;;;;10.48;2.38;;;;;;;;;;5129947;27;20035;-46
2022/09/04 12:43:26;;;;;;;13.52;1.75;;;;;;;;;;5128823;27;20034;-48
2022/09/04 12:45:57;;;;;;;4.75;2.17;;;;;;;;;;5127928;27;20015;-44
2022/09/04 12:48:22;;;;;;;3.05;1.17;;;;;;;;;;5128655;27;20090;-48
2022/09/04 12:51:08;;;;;;;7.50;1.27;;;;;;;;;;5126117;27;20458;-46
2022/09/04 12:53:42;;;;;;;11.80;1.70;;;;;;;;;;5129359;27;20007;-44
2022/09/04 12:56:26;;;;;;;4.55;2.72;;;;;;;;;;5126087;27;20047;-45
2022/09/04 12:58:54;;;;;;;3.03;1.00;;;;;;;;;;5133831;27;20554;-42
2022/09/04 13:01:23;;;;;;;8.93;2.13;;;;;;;;;;5129732;27;20016;-43
2022/09/04 13:03:49;;;;;;;5.35;2.15;;;;;;;;;;5129607;27;20049;-42
2022/09/04 13:06:23;;;;;;;4.85;2.00;;;;;;;;;;5133317;27;20007;-42
2022/09/04 13:08:55;;;;;;;8.30;0.98;;;;;;;;;;5131968;27;20011;-41
2022/09/04 13:11:29;;;;;;;4.32;1.67;;;;;;;;;;5134833;27;20669;-46
2022/09/04 13:13:55;;;;;;;7.45;1.25;;;;;;;;;;5128418;27;20014;-45
2022/09/04 13:16:35;;;;;;;12.02;2.80;;;;;;;;;;5131115;27;20016;-49
2022/09/04 13:19:19;;;;;;;14.13;2.17;;;;;;;;;;5130206;27;20030;-46
2022/09/04 13:22:03;;;;;;;3.50;2.45;;;;;;;;;;5130340;27;20094;-46
2022/09/04 13:24:38;;;;;;;3.22;1.00;;;;;;;;;;5129761;27;20114;-46
2022/09/04 13:27:14;;;;;;;5.97;1.05;;;;;;;;;;5130696;27;20019;-46
2022/09/04 13:29:49;;;;;;;1.75;1.08;;;;;;;;;;5132630;27;20019;-45
2022/09/04 13:32:38;;;;;;;4.13;1.30;;;;;;;;;;5127935;27;20201;-43
2022/09/04 13:35:26;;;;;;;9.70;1.90;;;;;;;;;;5126397;27;20034;-42
2022/09/04 13:38:09;;;;;;;2.42;1.17;;;;;;;;;;5091424;27;20296;-49
2022/09/04 13:40:54;;;;;;;4.80;2.10;;;;;;;;;;5138069;27;20461;-45
2022/09/04 13:43:55;;;;;;;4.50;2.58;;;;;;;;;;5139185;27;20019;-42
2022/09/04 13:46:23;;;;;;;7.00;2.63;;;;;;;;;;5133310;27;20031;-46
2022/09/04 13:48:51;;;;;;;17.52;2.00;;;;;;;;;;5135445;27;20030;-47
2022/09/04 13:51:21;;;;;;;8.75;1.48;;;;;;;;;;5133820;27;20026;-44
2022/09/04 13:53:47;;;;;;;;;;;;;;;;;;5134255;27;20026;-44
2022/09/04 13:56:15;;;;;;;18.13;2.63;;;;;;;;;;5134893;27;19910;-46
2022/09/04 13:58:49;;;;;;;3.35;1.20;;;;;;;;;;5104621;27;20027;-47
2022/09/04 14:01:20;;;;;;;10.75;2.53;;;;;;;;;;5134008;27;20031;-44
2022/09/04 14:03:48;;;;;;;5.25;2.60;;;;;;;;;;5137070;27;20050;-44
2022/09/04 14:06:16;;;;;;;5.20;2.13;;;;;;;;;;5135500;27;20015;-46
2022/09/04 14:08:42;;;;;;;3.88;2.33;;;;;;;;;;5133291;27;20042;-48
2022/09/04 14:11:07;;;;;;;11.77;2.30;;;;;;;;;;5131314;27;20024;-45
2022/09/04 14:13:43;;;;;;;11.65;3.60;;;;;;;;;;5132915;27;20054;-45
2022/09/04 14:16:10;;;;;;;7.65;2.63;;;;;;;;;;5136430;27;20022;-48
2022/09/04 14:18:38;;;;;;;4.32;1.33;;;;;;;;;;5137885;27;20035;-42
2022/09/04 14:21:17;;;;;;;10.18;2.20;;;;;;;;;;5133830;27;20031;-43
2022/09/04 14:23:51;;;;;;;11.82;2.08;;;;;;;;;;5134994;27;20019;-49
2022/09/04 14:26:23;;;;;;;5.63;1.05;;;;;;;;;;5128426;27;20023;-44
2022/09/04 14:28:49;;;;;;;7.47;1.98;;;;;;;;;;5134759;27;20023;-46
2022/09/04 14:31:37;;;;;;;3.72;1.70;;;;;;;;;;5131450;27;20497;-47
2022/09/04 14:34:12;;;;;;;15.35;2.60;;;;;;;;;;5130992;27;20027;-43
2022/09/04 14:36:54;;;;;;;3.15;1.08;;;;;;;;;;5131496;27;20037;-46
2022/09/04 14:39:27;;;;;;;10.80;2.45;;;;;;;;;;5133866;27;20050;-45
2022/09/04 14:42:16;;;;;;;3.17;1.67;;;;;;;;;;5136040;27;20023;-52
2022/09/04 14:44:44;;;;;;;10.82;2.53;;;;;;;;;;5130853;27;20027;-49
2022/09/04 14:47:28;;;;;;;13.57;1.65;;;;;;;;;;5136970;27;20462;-45
2022/09/04 14:49:54;;;;;;;4.30;1.75;;;;;;;;;;5138802;27;20023;-43
2022/09/04 14:52:22;;;;;;;22.88;4.90;;;;;;;;;;5132508;27;20037;-44
2022/09/04 14:54:52;;;;;;;7.20;3.30;;;;;;;;;;5134686;27;20050;-45
2022/09/04 14:57:23;;;;;;;5.47;1.50;;;;;;;;;;5132280;27;20023;-44
2022/09/04 14:59:56;;;;;;;8.48;2.80;;;;;;;;;;5135888;27;20043;-46
2022/09/04 15:02:34;;;;;;;12.77;3.47;;;;;;;;;;5135107;27;20026;-47
2022/09/04 15:05:06;;;;;;;8.55;3.72;;;;;;;;;;5136496;27;20531;-44
2022/09/04 15:07:34;;;;;;;7.20;1.55;;;;;;;;;;5130702;27;20019;-43
2022/09/04 15:10:09;;;;;;;16.10;2.42;;;;;;;;;;5138654;27;20019;-45
2022/09/04 15:12:36;;;;;;;6.50;2.20;;;;;;;;;;5131363;27;20084;-44
2022/09/04 15:15:01;;;;;;;8.95;1.98;;;;;;;;;;5133426;27;20017;-43
2022/09/04 15:17:28;;;;;;;12.15;2.72;;;;;;;;;;5132829;27;20102;-42
2022/09/04 15:20:21;;;;;;;7.03;2.03;;;;;;;;;;5134952;27;20019;-44
2022/09/04 15:22:49;;;;;;;6.00;2.33;;;;;;;;;;5130598;27;20029;-42
2022/09/04 15:25:18;;;;;;;14.75;2.17;;;;;;;;;;5127716;27;20319;-44
2022/09/04 15:27:49;;;;;;;11.98;2.63;;;;;;;;;;5131691;27;20030;-44
2022/09/04 15:30:20;;;;;;;8.75;2.92;;;;;;;;;;5131212;27;20062;-47
2022/09/04 15:32:46;;;;;;;5.82;2.35;;;;;;;;;;5132431;27;20078;-47